Baldwin, Georgia
Current Conditions -  °F | °C
As of 2:15 PM on Monday 22 Dec 2014 (Local Time) from KTOC Reporting Station
Haze Haze  
Wind Chill: 40°   Ceiling: 600
Heat Index: 44°   Visibility: 3mi
Dew Point: 43°   Wind: 7mph
Humidity: 96%   Direction: 80°E
Pressure: 29.98"   Gusts: NA
Location:  34.49°N, 83.54°W
Report Text: KTOC 221915Z AUTO 08006KT 3SM BR OVC006 07/06 A2998 RMK AO2 T00650059
Loading
Personal Weather Stations






























Interactive Weather Map New forecast layout! Learn more

10-Day Weather Forecast

Advertisements
Track Severe Weather on mobile